createdAt,value
2022-12-01T00:01:23.104Z,97.09
2022-12-01T00:03:50.230Z,97.16
2022-12-01T00:06:20.360Z,96.86
2022-12-01T00:09:07.722Z,96.50
2022-12-01T00:11:37.554Z,95.58
2022-12-01T00:14:05.645Z,94.78
2022-12-01T00:16:33.696Z,94.46
2022-12-01T00:19:00.900Z,94.17
2022-12-01T00:21:28.978Z,93.56
2022-12-01T00:23:58.282Z,93.11
2022-12-01T00:26:31.406Z,93.49
2022-12-01T00:28:59.763Z,93.69
2022-12-01T00:31:28.100Z,93.53
2022-12-01T00:33:55.933Z,93.03
2022-12-01T00:36:24.063Z,93.08
2022-12-01T00:38:56.302Z,93.12
2022-12-01T00:41:24.672Z,93.40
2022-12-01T00:43:52.295Z,93.44
2022-12-01T00:46:19.508Z,93.10
2022-12-01T00:48:46.897Z,92.78
2022-12-01T00:51:16.297Z,92.44
2022-12-01T00:53:44.817Z,91.84
2022-12-01T00:56:12.238Z,91.65
2022-12-01T00:58:46.349Z,91.54
2022-12-01T01:01:31.879Z,91.72
2022-12-01T01:03:59.155Z,92.01
2022-12-01T01:06:27.176Z,92.64
2022-12-01T01:08:54.565Z,93.22
2022-12-01T01:11:21.566Z,93.52
2022-12-01T01:13:49.034Z,93.80
2022-12-01T01:16:19.741Z,93.90
2022-12-01T01:18:47.794Z,94.10
2022-12-01T01:21:17.832Z,94.32
2022-12-01T01:23:45.042Z,94.51
2022-12-01T01:26:31.116Z,95.25
2022-12-01T01:29:01.063Z,94.85
2022-12-01T01:31:30.533Z,94.75
2022-12-01T01:34:00.096Z,95.01
2022-12-01T01:36:28.218Z,95.02
2022-12-01T01:38:55.765Z,95.47
2022-12-01T01:41:23.950Z,95.93
2022-12-01T01:43:55.225Z,96.05
2022-12-01T01:46:24.573Z,96.08
2022-12-01T01:49:11.995Z,96.12
2022-12-01T01:51:57.867Z,96.59
2022-12-01T01:54:33.235Z,96.50
2022-12-01T01:57:02.534Z,96.37
2022-12-01T01:59:34.772Z,96.05
2022-12-01T02:02:08.758Z,95.71
2022-12-01T02:04:42.461Z,95.20
2022-12-01T02:07:13.100Z,95.37
2022-12-01T02:09:41.325Z,95.13
2022-12-01T02:12:26.386Z,95.31
2022-12-01T02:14:53.343Z,95.17
2022-12-01T02:17:47.565Z,95.40
2022-12-01T02:20:50.905Z,95.41
2022-12-01T02:24:02.701Z,95.66
2022-12-01T02:26:54.632Z,95.67
2022-12-01T02:29:54.845Z,95.28
2022-12-01T02:32:58.236Z,95.41
2022-12-01T02:35:39.275Z,95.79
2022-12-01T02:38:21.879Z,95.78
2022-12-01T02:41:04.595Z,95.51
2022-12-01T02:43:51.539Z,95.78
2022-12-01T02:46:42.236Z,95.90
2022-12-01T02:49:21.851Z,96.36
2022-12-01T02:51:51.155Z,96.69
2022-12-01T02:54:21.356Z,96.80
2022-12-01T02:56:54.453Z,96.62
2022-12-01T02:59:21.494Z,96.40
2022-12-01T03:02:00.890Z,96.33
2022-12-01T03:04:55.496Z,96.34
2022-12-01T03:08:03.966Z,96.51
2022-12-01T03:10:58.012Z,97.07
2022-12-01T03:13:42.520Z,97.63
2022-12-01T03:16:21.158Z,97.35
2022-12-01T03:19:31.329Z,96.94
2022-12-01T03:22:32.072Z,97.28
2022-12-01T03:25:01.557Z,97.65
2022-12-01T03:27:35.464Z,98.00
2022-12-01T03:30:04.690Z,98.56
2022-12-01T03:32:38.370Z,98.75
2022-12-01T03:35:12.819Z,99.00
2022-12-01T03:37:42.895Z,98.60
2022-12-01T03:40:14.895Z,98.57
2022-12-01T03:42:48.041Z,98.65
2022-12-01T03:45:26.701Z,98.64
2022-12-01T03:47:53.936Z,98.40
2022-12-01T03:50:29.078Z,97.71
2022-12-01T03:53:04.460Z,97.15
2022-12-01T03:55:39.495Z,96.79
2022-12-01T03:58:17.346Z,96.62
2022-12-01T04:00:50.076Z,96.39
2022-12-01T04:03:19.795Z,96.35
2022-12-01T04:06:11.881Z,96.27
2022-12-01T04:08:39.822Z,96.33
2022-12-01T04:11:32.193Z,96.67
2022-12-01T04:14:00.984Z,97.06
2022-12-01T04:16:27.933Z,97.21
2022-12-01T04:18:56.451Z,97.69
2022-12-01T04:21:23.875Z,98.06
2022-12-01T04:24:03.691Z,98.39
2022-12-01T04:26:34.036Z,98.55
2022-12-01T04:29:05.857Z,98.68
2022-12-01T04:31:33.229Z,98.47
2022-12-01T04:34:00.889Z,98.65
2022-12-01T04:36:31.265Z,98.60
2022-12-01T04:38:58.801Z,98.24
2022-12-01T04:41:26.339Z,98.14
2022-12-01T04:43:56.856Z,98.25
2022-12-01T04:46:25.883Z,98.54
2022-12-01T04:48:53.285Z,99.06
2022-12-01T04:51:22.604Z,98.83
2022-12-01T04:53:52.665Z,98.61
2022-12-01T04:56:20.240Z,98.53
2022-12-01T04:58:53.812Z,98.83
2022-12-01T05:01:21.253Z,98.84
2022-12-01T05:03:51.976Z,98.64
2022-12-01T05:06:25.739Z,98.32
2022-12-01T05:08:56.517Z,97.82
2022-12-01T05:11:26.173Z,97.37
2022-12-01T05:13:54.421Z,97.36
2022-12-01T05:16:30.367Z,97.57
2022-12-01T05:19:20.250Z,97.89
2022-12-01T05:21:49.091Z,97.97
2022-12-01T05:24:17.344Z,98.06
2022-12-01T05:26:45.982Z,98.45
2022-12-01T05:29:13.415Z,98.73
2022-12-01T05:31:41.492Z,99.01
2022-12-01T05:34:09.266Z,99.17
2022-12-01T05:36:37.391Z,99.23
2022-12-01T05:39:05.460Z,99.09
2022-12-01T05:41:32.651Z,99.04
2022-12-01T05:43:59.959Z,99.53
2022-12-01T05:46:27.451Z,99.45
2022-12-01T05:48:55.812Z,99.41
2022-12-01T05:51:23.301Z,99.39
2022-12-01T05:53:50.744Z,99.27
2022-12-01T05:56:18.161Z,99.08
2022-12-01T05:58:45.131Z,98.72
2022-12-01T06:01:12.560Z,98.70
2022-12-01T06:03:39.522Z,98.50
2022-12-01T06:06:07.260Z,98.86
2022-12-01T06:08:34.384Z,99.38
2022-12-01T06:11:03.615Z,99.59
2022-12-01T06:13:30.861Z,99.84
2022-12-01T06:16:03.397Z,100.00
2022-12-01T06:18:36.972Z,100.00
2022-12-01T06:21:07.438Z,100.00
2022-12-01T06:23:34.953Z,100.00
2022-12-01T06:26:02.229Z,100.00
2022-12-01T06:28:29.552Z,100.00
2022-12-01T06:31:02.735Z,99.80
2022-12-01T06:33:31.943Z,99.85
2022-12-01T06:36:10.147Z,99.24
2022-12-01T06:38:37.545Z,99.35
2022-12-01T06:41:05.665Z,99.62
2022-12-01T06:43:32.894Z,99.82
2022-12-01T06:46:02.841Z,100.00
2022-12-01T06:48:31.695Z,100.00
2022-12-01T06:50:59.781Z,99.94
2022-12-01T06:53:28.660Z,100.00
2022-12-01T06:56:06.123Z,100.00
2022-12-01T06:58:34.899Z,99.98
2022-12-01T07:01:12.860Z,100.00
2022-12-01T07:03:40.302Z,100.00
2022-12-01T07:06:07.456Z,100.00
2022-12-01T07:08:34.547Z,100.00
2022-12-01T07:11:04.478Z,100.00
2022-12-01T07:13:34.097Z,100.00
2022-12-01T07:16:06.090Z,99.99
2022-12-01T07:18:34.105Z,99.90
2022-12-01T07:21:04.034Z,100.00
2022-12-01T07:23:31.764Z,99.97
2022-12-01T07:26:04.386Z,100.00
2022-12-01T07:28:34.066Z,100.00
2022-12-01T07:31:09.435Z,100.00
2022-12-01T07:33:37.019Z,100.00
2022-12-01T07:36:12.382Z,100.00
2022-12-01T07:38:40.244Z,99.97
2022-12-01T07:41:17.008Z,100.00
2022-12-01T07:43:44.358Z,100.00
2022-12-01T07:46:23.351Z,100.00
2022-12-01T07:48:56.382Z,99.72
2022-12-01T07:51:25.656Z,99.21
2022-12-01T07:53:55.147Z,99.21
2022-12-01T07:56:23.247Z,99.29
2022-12-01T07:58:51.773Z,99.51
2022-12-01T08:01:21.786Z,99.59
2022-12-01T08:03:51.959Z,99.19
2022-12-01T08:06:20.350Z,99.01
2022-12-01T08:08:53.853Z,98.64
2022-12-01T08:11:24.724Z,98.14
2022-12-01T08:13:53.930Z,98.20
2022-12-01T08:16:23.034Z,98.57
2022-12-01T08:18:50.778Z,98.51
2022-12-01T08:21:20.226Z,98.71
2022-12-01T08:23:48.592Z,98.78
2022-12-01T08:26:18.635Z,98.68
2022-12-01T08:28:51.969Z,98.68
2022-12-01T08:31:22.357Z,98.80
2022-12-01T08:33:51.024Z,98.33
2022-12-01T08:36:19.383Z,98.41
2022-12-01T08:38:49.204Z,98.49
2022-12-01T08:41:16.929Z,98.78
2022-12-01T08:44:01.721Z,99.16
2022-12-01T08:46:35.870Z,99.32
2022-12-01T08:49:05.480Z,99.51
2022-12-01T08:51:33.187Z,100.00
2022-12-01T08:54:01.865Z,100.00
2022-12-01T08:56:29.114Z,100.00
2022-12-01T08:58:56.583Z,100.00
2022-12-01T09:01:28.437Z,100.00
2022-12-01T09:04:06.777Z,100.00
2022-12-01T09:06:40.138Z,99.43
2022-12-01T09:09:10.145Z,99.29
2022-12-01T09:11:37.762Z,98.98
2022-12-01T09:14:05.137Z,98.94
2022-12-01T09:16:33.533Z,98.95
2022-12-01T09:19:00.732Z,99.16
2022-12-01T09:21:31.074Z,99.36
2022-12-01T09:24:00.983Z,99.56
2022-12-01T09:26:29.036Z,99.21
2022-12-01T09:29:04.269Z,98.95
2022-12-01T09:31:31.887Z,98.79
2022-12-01T09:34:01.839Z,98.85
2022-12-01T09:36:30.387Z,98.86
2022-12-01T09:39:00.159Z,98.64
2022-12-01T09:41:50.515Z,98.75
2022-12-01T09:44:38.052Z,98.93
2022-12-01T09:47:19.395Z,98.33
2022-12-01T09:50:12.567Z,98.30
2022-12-01T09:52:52.040Z,97.94
2022-12-01T09:55:23.397Z,97.37
2022-12-01T09:57:56.321Z,96.88
2022-12-01T10:00:26.887Z,96.67
2022-12-01T10:03:24.960Z,96.48
2022-12-01T10:06:26.241Z,97.00
2022-12-01T10:08:55.196Z,97.03
2022-12-01T10:11:33.938Z,96.68
2022-12-01T10:14:01.461Z,96.29
2022-12-01T10:16:38.621Z,96.34
2022-12-01T10:19:12.875Z,96.56
2022-12-01T10:21:54.199Z,96.41
2022-12-01T10:24:58.640Z,95.91
2022-12-01T10:27:52.935Z,94.76
2022-12-01T10:30:23.858Z,94.38
2022-12-01T10:32:57.880Z,94.48
2022-12-01T10:35:37.263Z,94.22
2022-12-01T10:38:15.512Z,93.60
2022-12-01T10:40:44.180Z,93.39
2022-12-01T10:43:11.272Z,92.93
2022-12-01T10:45:42.943Z,91.75
2022-12-01T10:48:23.285Z,91.06
2022-12-01T10:50:53.221Z,90.96
2022-12-01T10:53:23.196Z,90.45
2022-12-01T10:56:12.796Z,89.84
2022-12-01T10:59:04.908Z,90.09
2022-12-01T11:01:37.307Z,90.46
2022-12-01T11:04:21.852Z,90.42
2022-12-01T11:06:50.901Z,90.66
2022-12-01T11:09:27.057Z,90.83
2022-12-01T11:12:04.886Z,91.55
2022-12-01T11:14:48.969Z,91.64
2022-12-01T11:17:36.193Z,91.28
2022-12-01T11:20:27.367Z,90.50
2022-12-01T11:23:21.876Z,90.56
2022-12-01T11:26:21.062Z,90.91
2022-12-01T11:29:26.518Z,91.20
2022-12-01T11:31:54.571Z,91.35
2022-12-01T11:34:36.354Z,91.07
2022-12-01T11:37:06.876Z,90.50
2022-12-01T11:39:42.296Z,89.69
2022-12-01T11:42:19.556Z,89.29
2022-12-01T11:44:54.677Z,88.81
2022-12-01T11:47:27.232Z,88.70
2022-12-01T11:50:24.710Z,87.95
2022-12-01T11:52:51.856Z,87.67
2022-12-01T11:55:25.012Z,87.31
2022-12-01T11:57:54.993Z,86.90
2022-12-01T12:00:25.481Z,87.15
2022-12-01T12:03:17.079Z,86.18
2022-12-01T12:06:01.465Z,86.22
2022-12-01T12:08:59.852Z,86.75
2022-12-01T12:11:53.506Z,87.16
2022-12-01T12:15:08.377Z,87.27
2022-12-01T12:18:02.722Z,87.02
2022-12-01T12:20:56.939Z,86.51
2022-12-01T12:23:56.095Z,86.75
2022-12-01T12:26:27.386Z,87.14
2022-12-01T12:29:18.977Z,87.57
2022-12-01T12:32:04.159Z,87.33
2022-12-01T12:34:46.231Z,86.97
2022-12-01T12:37:35.392Z,87.01
2022-12-01T12:40:41.209Z,87.73
2022-12-01T12:43:22.519Z,87.28
2022-12-01T12:46:04.892Z,87.60
2022-12-01T12:49:18.649Z,87.98
2022-12-01T12:52:09.076Z,88.29
2022-12-01T12:54:46.412Z,87.86
2022-12-01T12:57:32.176Z,87.59
2022-12-01T13:00:14.174Z,87.63
2022-12-01T13:02:43.036Z,87.87
2022-12-01T13:05:18.712Z,88.26
2022-12-01T13:08:07.273Z,88.70
2022-12-01T13:10:40.738Z,88.02
2022-12-01T13:13:07.596Z,87.73
2022-12-01T13:15:37.209Z,87.31
2022-12-01T13:18:17.069Z,86.51
2022-12-01T13:20:44.576Z,86.11
2022-12-01T13:23:16.895Z,85.29
2022-12-01T13:25:47.414Z,84.85
2022-12-01T13:28:49.473Z,84.90
2022-12-01T13:31:19.250Z,85.67
2022-12-01T13:34:15.941Z,86.46
2022-12-01T13:36:52.271Z,86.62
2022-12-01T13:39:36.486Z,86.46
2022-12-01T13:42:05.698Z,86.41
2022-12-01T13:44:46.114Z,86.46
2022-12-01T13:47:13.197Z,86.38
2022-12-01T13:49:49.404Z,86.63
2022-12-01T13:52:28.551Z,86.32
2022-12-01T13:55:07.802Z,86.19
2022-12-01T13:57:40.483Z,86.45
2022-12-01T14:00:24.015Z,86.35
2022-12-01T14:03:09.737Z,86.52
2022-12-01T14:05:44.117Z,86.52
2022-12-01T14:08:31.312Z,85.76
2022-12-01T14:11:03.428Z,84.85
2022-12-01T14:13:32.844Z,84.12
2022-12-01T14:16:03.010Z,84.15
2022-12-01T14:18:42.031Z,83.99
2022-12-01T14:21:11.818Z,83.78
2022-12-01T14:24:01.158Z,84.03
2022-12-01T14:26:31.421Z,83.98
2022-12-01T14:29:01.577Z,84.22
2022-12-01T14:31:35.255Z,84.46
2022-12-01T14:34:18.872Z,85.04
2022-12-01T14:36:56.282Z,84.83
2022-12-01T14:39:36.358Z,84.99
2022-12-01T14:42:49.461Z,84.26
2022-12-01T14:45:23.108Z,84.31
2022-12-01T14:48:12.907Z,84.24
2022-12-01T14:50:49.463Z,84.24
2022-12-01T14:53:23.752Z,84.25
2022-12-01T14:56:10.276Z,84.87
2022-12-01T14:58:37.716Z,84.88
2022-12-01T15:01:07.213Z,84.75
2022-12-01T15:03:45.779Z,85.01
2022-12-01T15:06:19.280Z,84.51
2022-12-01T15:09:04.248Z,84.15
2022-12-01T15:11:36.179Z,83.79
2022-12-01T15:14:03.419Z,84.02
2022-12-01T15:16:32.585Z,83.52
2022-12-01T15:19:00.868Z,83.56
2022-12-01T15:21:31.316Z,83.92
2022-12-01T15:24:04.917Z,84.01
2022-12-01T15:26:35.716Z,84.13
2022-12-01T15:29:19.619Z,84.83
2022-12-01T15:31:53.720Z,85.40
2022-12-01T15:34:45.116Z,86.02
2022-12-01T15:37:26.947Z,86.25
2022-12-01T15:40:59.857Z,86.52
2022-12-01T15:43:20.486Z,86.64
2022-12-01T15:45:54.464Z,86.15
2022-12-01T15:48:35.211Z,86.49
2022-12-01T15:51:05.882Z,86.48
2022-12-01T15:53:35.675Z,86.12
2022-12-01T15:56:09.646Z,85.70
2022-12-01T15:58:44.440Z,85.31
2022-12-01T16:01:21.499Z,85.01
2022-12-01T16:03:57.248Z,85.53
2022-12-01T16:06:30.864Z,85.31
2022-12-01T16:09:19.784Z,85.29
2022-12-01T16:12:11.838Z,85.94
2022-12-01T16:14:55.515Z,86.33
2022-12-01T16:17:23.666Z,86.51
2022-12-01T16:20:19.516Z,86.99
2022-12-01T16:22:59.144Z,87.13
2022-12-01T16:25:40.620Z,86.99
2022-12-01T16:28:24.125Z,87.32
2022-12-01T16:30:53.568Z,87.06
2022-12-01T16:33:24.880Z,86.94
2022-12-01T16:35:53.236Z,86.94
2022-12-01T16:38:23.821Z,86.75
2022-12-01T16:40:55.411Z,86.26
2022-12-01T16:43:25.248Z,86.19
2022-12-01T16:46:03.489Z,86.44
2022-12-01T16:48:32.621Z,86.71
2022-12-01T16:51:06.559Z,86.95
2022-12-01T16:53:34.684Z,87.28
2022-12-01T16:56:03.819Z,87.32
2022-12-01T16:58:37.193Z,87.13
2022-12-01T17:01:07.281Z,86.96
2022-12-01T17:03:34.655Z,86.88
2022-12-01T17:06:03.313Z,86.20
2022-12-01T17:08:31.113Z,86.04
2022-12-01T17:10:59.376Z,85.23
2022-12-01T17:13:27.381Z,84.95
2022-12-01T17:15:55.674Z,84.55
2022-12-01T17:18:24.310Z,84.50
2022-12-01T17:21:05.828Z,84.83
2022-12-01T17:23:34.363Z,85.04
2022-12-01T17:26:01.806Z,84.72
2022-12-01T17:28:29.601Z,84.85
2022-12-01T17:31:00.916Z,84.57
2022-12-01T17:33:29.867Z,84.57
2022-12-01T17:36:00.910Z,84.06
2022-12-01T17:38:29.435Z,84.45
2022-12-01T17:41:02.127Z,84.75
2022-12-01T17:43:29.692Z,84.63
2022-12-01T17:45:57.620Z,84.63
2022-12-01T17:48:25.951Z,85.04
2022-12-01T17:50:53.249Z,85.11
2022-12-01T17:53:20.666Z,85.68
2022-12-01T17:55:48.175Z,86.02
2022-12-01T17:58:21.459Z,86.32
2022-12-01T18:00:55.448Z,86.92
2022-12-01T18:03:23.768Z,87.39
2022-12-01T18:05:59.213Z,87.43
2022-12-01T18:08:28.974Z,86.88
2022-12-01T18:10:56.856Z,86.71
2022-12-01T18:13:24.924Z,85.98
2022-12-01T18:15:52.703Z,85.66
2022-12-01T18:18:23.410Z,85.58
2022-12-01T18:20:52.129Z,85.35
2022-12-01T18:23:19.531Z,84.44
2022-12-01T18:25:49.013Z,83.92
2022-12-01T18:28:17.697Z,83.72
2022-12-01T18:30:51.935Z,84.06
2022-12-01T18:33:21.556Z,84.38
2022-12-01T18:35:51.056Z,84.08
2022-12-01T18:38:18.710Z,83.61
2022-12-01T18:40:48.182Z,83.46
2022-12-01T18:43:17.794Z,83.85
2022-12-01T18:45:46.090Z,83.76
2022-12-01T18:48:15.425Z,83.68
2022-12-01T18:50:43.220Z,84.07
2022-12-01T18:53:14.007Z,83.87
2022-12-01T18:55:41.415Z,83.79
2022-12-01T18:58:08.790Z,83.40
2022-12-01T19:00:36.096Z,83.61
2022-12-01T19:03:03.410Z,83.80
2022-12-01T19:05:33.642Z,84.16
2022-12-01T19:08:07.087Z,84.22
2022-12-01T19:10:34.299Z,84.64
2022-12-01T19:13:01.761Z,84.81
2022-12-01T19:15:30.228Z,84.86
2022-12-01T19:17:57.805Z,84.88
2022-12-01T19:20:26.669Z,84.89
2022-12-01T19:22:55.134Z,85.25
2022-12-01T19:25:29.751Z,85.42
2022-12-01T19:27:58.816Z,85.65
2022-12-01T19:30:26.955Z,85.81
2022-12-01T19:32:56.208Z,86.08
2022-12-01T19:35:24.260Z,86.26
2022-12-01T19:37:53.314Z,86.46
2022-12-01T19:40:22.232Z,86.49
2022-12-01T19:42:49.790Z,86.79
2022-12-01T19:45:17.575Z,86.95
2022-12-01T19:47:49.194Z,86.90
2022-12-01T19:50:22.497Z,86.88
2022-12-01T19:52:59.078Z,86.72
2022-12-01T19:55:26.538Z,85.88
2022-12-01T19:57:54.413Z,85.15
2022-12-01T20:00:26.621Z,84.80
2022-12-01T20:02:53.724Z,84.81
2022-12-01T20:05:22.350Z,84.00
2022-12-01T20:07:51.419Z,83.68
2022-12-01T20:10:21.080Z,82.97
2022-12-01T20:12:55.097Z,82.51
2022-12-01T20:15:22.941Z,82.75
2022-12-01T20:17:50.977Z,82.91
2022-12-01T20:20:18.461Z,83.19
2022-12-01T20:22:49.243Z,83.52
2022-12-01T20:25:17.952Z,83.95
2022-12-01T20:27:46.309Z,83.80
2022-12-01T20:30:14.835Z,83.83
2022-12-01T20:32:43.876Z,83.59
2022-12-01T20:35:11.803Z,83.57
2022-12-01T20:37:39.341Z,82.98
2022-12-01T20:40:08.368Z,83.58
2022-12-01T20:42:37.597Z,83.78
2022-12-01T20:45:05.056Z,83.65
2022-12-01T20:47:37.650Z,83.65
2022-12-01T20:50:06.564Z,83.58
2022-12-01T20:52:34.287Z,83.50
2022-12-01T20:55:01.797Z,83.71
2022-12-01T20:57:29.491Z,83.87
2022-12-01T20:59:56.683Z,83.66
2022-12-01T21:02:23.739Z,83.59
2022-12-01T21:04:53.974Z,83.80
2022-12-01T21:07:26.111Z,84.46
2022-12-01T21:09:53.690Z,84.77
2022-12-01T21:12:39.413Z,84.89
2022-12-01T21:15:25.759Z,84.80
2022-12-01T21:18:05.049Z,83.91
2022-12-01T21:20:40.492Z,83.35
2022-12-01T21:23:13.104Z,83.77
2022-12-01T21:25:41.842Z,83.66
2022-12-01T21:28:25.043Z,83.25
2022-12-01T21:31:18.666Z,82.99
2022-12-01T21:33:46.864Z,82.68
2022-12-01T21:36:23.014Z,82.76
2022-12-01T21:38:56.094Z,83.24
2022-12-01T21:41:28.509Z,83.72
2022-12-01T21:44:16.867Z,83.78
2022-12-01T21:46:44.596Z,83.75
2022-12-01T21:49:25.627Z,83.88
2022-12-01T21:51:54.037Z,83.67
2022-12-01T21:54:23.235Z,83.84
2022-12-01T21:56:56.264Z,83.54
2022-12-01T21:59:30.003Z,83.50
2022-12-01T22:01:58.078Z,83.38
2022-12-01T22:04:30.546Z,83.71
2022-12-01T22:06:58.604Z,84.16
2022-12-01T22:09:34.466Z,84.59
2022-12-01T22:12:28.050Z,84.68
2022-12-01T22:15:01.305Z,84.52
2022-12-01T22:17:30.195Z,84.42
2022-12-01T22:20:21.556Z,84.05
2022-12-01T22:22:48.756Z,84.31
2022-12-01T22:25:25.746Z,85.06
2022-12-01T22:27:52.931Z,85.31
2022-12-01T22:30:24.185Z,85.61
2022-12-01T22:33:00.996Z,85.54
2022-12-01T22:35:42.492Z,85.70
2022-12-01T22:38:28.835Z,85.66
2022-12-01T22:41:03.756Z,85.89
2022-12-01T22:43:43.838Z,85.48
2022-12-01T22:46:21.792Z,85.42
2022-12-01T22:48:58.498Z,85.37
2022-12-01T22:51:26.968Z,85.16
2022-12-01T22:54:01.788Z,85.16
2022-12-01T22:56:47.389Z,85.25
2022-12-01T22:59:17.512Z,85.47
2022-12-01T23:01:53.444Z,85.78
2022-12-01T23:04:27.774Z,85.71
2022-12-01T23:07:07.413Z,85.87
2022-12-01T23:09:43.675Z,85.58
2022-12-01T23:12:28.716Z,85.22
2022-12-01T23:15:00.051Z,85.79
2022-12-01T23:17:33.062Z,85.81
2022-12-01T23:20:12.242Z,85.83
2022-12-01T23:22:39.711Z,85.69
2022-12-01T23:25:15.348Z,84.97
2022-12-01T23:27:44.470Z,84.91
2022-12-01T23:30:14.196Z,85.31
2022-12-01T23:32:42.124Z,85.14
2022-12-01T23:35:18.158Z,85.14
2022-12-01T23:37:48.180Z,84.83
2022-12-01T23:40:33.529Z,84.58
2022-12-01T23:43:25.531Z,84.71
2022-12-01T23:46:02.852Z,84.27
2022-12-01T23:48:39.681Z,84.19
2022-12-01T23:51:35.525Z,84.30
2022-12-01T23:54:13.768Z,84.96
2022-12-01T23:56:40.776Z,85.38
2022-12-01T23:59:14.023Z,85.29
